DAOO/ORN METAR and TAF weather

Enter ICAO airport designator
Station Type Date Time Source
DAOO METAR 2021/05/13 05:00 UTC NOAA

DAOO 130500Z 18005KT 9999 FEW016 15/10 Q1018


Station Type Date Time Source
DAOO Decoded METAR 2021/05/13 05:00 UTC NOAA

Oran / Es Senia, Algeria (DAOO) 35-38N 000-36W 90M
May 13, 2021 - 01:00 AM EDT / 2021.05.13 0500 UTC
Wind: from the S (180 degrees) at 6 MPH (5 KT):0
Visibility: greater than 7 mile(s):0
Sky conditions: mostly clear
Temperature: 59 F (15 C)
Dew Point: 50 F (10 C)
Relative Humidity: 72%
Pressure (altimeter): 30.06 in. Hg (1018 hPa)
ob: DAOO 130500Z 18005KT 9999 FEW016 15/10 Q1018
cycle: 5

Station Type Date Time Source
DAOO TAF 2021/05/12 18:40 UTC NOAA

TAF DAOO 121700Z 1218/1318 24014KT CAVOK
TEMPO 1218/1224 26010G20KT

Example: see airport list